Terminal Aerodrome Forecast
Issued by NWS St Louis, MO

Home | Current Version | Previous Version | Text Only | Print | Product List | Glossary On
Versions: 1 2 3 4 5 6 7 8 9 10 11 12 13 14 15 16 17 18 19 20 21 22 23
837
FTUS43 KLSX 212054 AAA
TAFSTL
TAF AMD
KSTL 212054Z 2121/2224 09013KT P6SM BKN200
     FM220500 09010KT P6SM OVC090
     FM220800 09008KT P6SM VCSH OVC060
     FM221200 08008KT P6SM OVC040=

USA.gov is the U.S. government's official web portal to all federal, state and local government web resources and services.